CYZF

Yellowknife Airport

Yellowknife, Northwest Territories, Canada
METAR CYZF 181300Z 04005KT 15SM SKC M34/M38 A3050 RMK SLP367
Observed Flight Rules
Jan-18 @ 13:00 UTC (50 minutes ago) Visual Flight Rules
Wind Visibility Clouds
40° at 5 knots 15 miles
  • Clear skies
Temperatures Readings
Current -34°C / -29°F
Dewpoint -38°C / -36°F
Humidity 67%
Altimeter 30.5" Hg
Pressure 1036.7 hPa
Elevation 206
METAR CYZF 181300Z 04005KT 15SM SKC M34/M38 A3050 RMK SLP367
Observed Flight Rules
Jan-18 @ 13:00 UTC
(50 minutes ago)
VFR
Wind Visibility
40° at 5 knots 15 miles
Clouds
  • Clear skies
Temperature Dewpoint
-34°C / -29°F -38°C / -36°F
Humidity Altimeter Pressure
67% 30.5" Hg 1036.7 hPa